sensor_id;sensor_type;location;lat;lon;timestamp;pressure;altitude;pressure_sealevel;temperature;humidity
44213;BME280;29882;46.356;17.798;2022-10-16T00:01:30;100277.91;;;12.75;100.00
44213;BME280;29882;46.356;17.798;2022-10-16T00:03:58;100284.84;;;12.61;100.00
44213;BME280;29882;46.356;17.798;2022-10-16T00:06:27;100278.25;;;12.56;100.00
44213;BME280;29882;46.356;17.798;2022-10-16T00:08:55;100278.06;;;12.57;100.00
44213;BME280;29882;46.356;17.798;2022-10-16T00:11:28;100280.63;;;12.59;100.00
44213;BME280;29882;46.356;17.798;2022-10-16T00:13:56;100280.59;;;12.42;100.00
44213;BME280;29882;46.356;17.798;2022-10-16T00:16:24;100277.38;;;12.47;100.00
44213;BME280;29882;46.356;17.798;2022-10-16T00:18:52;100281.63;;;12.41;100.00
44213;BME280;29882;46.356;17.798;2022-10-16T00:21:21;100279.41;;;12.37;100.00
44213;BME280;29882;46.356;17.798;2022-10-16T00:23:53;100278.22;;;12.31;100.00
44213;BME280;29882;46.356;17.798;2022-10-16T00:26:21;100282.41;;;12.26;100.00
44213;BME280;29882;46.356;17.798;2022-10-16T00:28:49;100280.06;;;12.23;100.00
44213;BME280;29882;46.356;17.798;2022-10-16T00:31:17;100288.47;;;12.19;100.00
44213;BME280;29882;46.356;17.798;2022-10-16T00:33:45;100298.09;;;12.22;100.00
44213;BME280;29882;46.356;17.798;2022-10-16T00:36:15;100297.28;;;12.30;100.00
44213;BME280;29882;46.356;17.798;2022-10-16T00:38:43;100293.41;;;12.32;100.00
44213;BME280;29882;46.356;17.798;2022-10-16T00:41:15;100289.88;;;12.32;100.00
44213;BME280;29882;46.356;17.798;2022-10-16T00:43:44;100289.03;;;12.31;100.00
44213;BME280;29882;46.356;17.798;2022-10-16T00:46:25;100284.31;;;12.33;100.00
44213;BME280;29882;46.356;17.798;2022-10-16T00:49:03;100300.00;;;12.38;100.00
44213;BME280;29882;46.356;17.798;2022-10-16T00:51:37;100293.44;;;12.40;100.00
44213;BME280;29882;46.356;17.798;2022-10-16T00:54:09;100304.25;;;12.48;100.00
44213;BME280;29882;46.356;17.798;2022-10-16T00:56:37;100295.28;;;12.48;100.00
44213;BME280;29882;46.356;17.798;2022-10-16T00:59:10;100286.19;;;12.41;100.00
44213;BME280;29882;46.356;17.798;2022-10-16T01:01:40;100303.06;;;12.43;100.00
44213;BME280;29882;46.356;17.798;2022-10-16T01:04:07;100302.88;;;12.36;100.00
44213;BME280;29882;46.356;17.798;2022-10-16T01:09:22;100302.53;;;12.31;100.00
44213;BME280;29882;46.356;17.798;2022-10-16T01:14:43;100296.41;;;12.21;100.00
44213;BME280;29882;46.356;17.798;2022-10-16T01:17:17;100297.97;;;12.24;100.00
44213;BME280;29882;46.356;17.798;2022-10-16T01:20:00;100300.97;;;12.20;100.00
44213;BME280;29882;46.356;17.798;2022-10-16T01:23:04;100302.66;;;12.13;100.00
44213;BME280;29882;46.356;17.798;2022-10-16T01:28:23;100298.06;;;12.06;100.00
44213;BME280;29882;46.356;17.798;2022-10-16T01:30:58;100301.09;;;12.11;100.00
44213;BME280;29882;46.356;17.798;2022-10-16T01:33:32;100304.16;;;12.08;100.00
44213;BME280;29882;46.356;17.798;2022-10-16T01:36:08;100306.16;;;12.06;100.00
44213;BME280;29882;46.356;17.798;2022-10-16T01:38:39;100303.09;;;12.01;100.00
44213;BME280;29882;46.356;17.798;2022-10-16T01:41:17;100309.03;;;12.04;100.00
44213;BME280;29882;46.356;17.798;2022-10-16T01:43:49;100313.22;;;11.99;100.00
44213;BME280;29882;46.356;17.798;2022-10-16T01:46:20;100313.25;;;12.07;100.00
44213;BME280;29882;46.356;17.798;2022-10-16T01:48:48;100309.00;;;11.96;100.00
44213;BME280;29882;46.356;17.798;2022-10-16T01:51:17;100303.44;;;11.98;100.00
44213;BME280;29882;46.356;17.798;2022-10-16T01:53:49;100310.84;;;11.96;100.00
44213;BME280;29882;46.356;17.798;2022-10-16T01:56:20;100306.31;;;11.96;100.00
44213;BME280;29882;46.356;17.798;2022-10-16T01:58:55;100304.94;;;12.00;100.00
44213;BME280;29882;46.356;17.798;2022-10-16T02:01:26;100300.53;;;11.91;100.00
44213;BME280;29882;46.356;17.798;2022-10-16T02:03:59;100301.03;;;11.86;100.00
44213;BME280;29882;46.356;17.798;2022-10-16T02:06:28;100301.03;;;11.86;100.00
44213;BME280;29882;46.356;17.798;2022-10-16T02:08:56;100306.25;;;11.88;100.00
44213;BME280;29882;46.356;17.798;2022-10-16T02:11:23;100303.03;;;11.84;100.00
44213;BME280;29882;46.356;17.798;2022-10-16T02:13:54;100295.47;;;11.88;100.00
44213;BME280;29882;46.356;17.798;2022-10-16T02:16:32;100308.25;;;11.86;100.00
44213;BME280;29882;46.356;17.798;2022-10-16T02:19:00;100298.81;;;11.82;100.00
44213;BME280;29882;46.356;17.798;2022-10-16T02:21:35;100304.88;;;11.84;100.00
44213;BME280;29882;46.356;17.798;2022-10-16T02:24:19;100303.66;;;11.78;100.00
44213;BME280;29882;46.356;17.798;2022-10-16T02:29:27;100316.78;;;11.73;100.00
44213;BME280;29882;46.356;17.798;2022-10-16T02:32:01;100311.00;;;11.68;100.00
44213;BME280;29882;46.356;17.798;2022-10-16T02:34:32;100314.41;;;11.70;100.00
44213;BME280;29882;46.356;17.798;2022-10-16T02:37:01;100315.78;;;11.74;100.00
44213;BME280;29882;46.356;17.798;2022-10-16T02:39:30;100316.94;;;11.72;100.00
44213;BME280;29882;46.356;17.798;2022-10-16T02:41:58;100325.03;;;11.72;100.00
44213;BME280;29882;46.356;17.798;2022-10-16T02:44:25;100319.97;;;11.69;100.00
44213;BME280;29882;46.356;17.798;2022-10-16T02:46:52;100330.44;;;11.72;100.00
44213;BME280;29882;46.356;17.798;2022-10-16T02:49:19;100327.06;;;11.70;100.00
44213;BME280;29882;46.356;17.798;2022-10-16T02:51:46;100320.28;;;11.65;100.00
44213;BME280;29882;46.356;17.798;2022-10-16T02:54:13;100339.19;;;11.65;100.00
44213;BME280;29882;46.356;17.798;2022-10-16T02:56:40;100338.66;;;11.62;100.00
44213;BME280;29882;46.356;17.798;2022-10-16T02:59:07;100342.16;;;11.54;100.00
44213;BME280;29882;46.356;17.798;2022-10-16T03:01:34;100352.56;;;11.49;100.00
44213;BME280;29882;46.356;17.798;2022-10-16T03:04:02;100349.81;;;11.41;100.00
44213;BME280;29882;46.356;17.798;2022-10-16T03:06:30;100353.06;;;11.45;100.00
44213;BME280;29882;46.356;17.798;2022-10-16T03:08:57;100350.13;;;11.38;100.00
44213;BME280;29882;46.356;17.798;2022-10-16T03:11:24;100345.69;;;11.29;100.00
44213;BME280;29882;46.356;17.798;2022-10-16T03:13:51;100351.00;;;11.21;100.00
44213;BME280;29882;46.356;17.798;2022-10-16T03:16:18;100353.88;;;11.19;100.00
44213;BME280;29882;46.356;17.798;2022-10-16T03:18:49;100352.34;;;11.17;100.00
44213;BME280;29882;46.356;17.798;2022-10-16T03:21:16;100359.75;;;11.15;100.00
44213;BME280;29882;46.356;17.798;2022-10-16T03:23:43;100359.03;;;11.13;100.00
44213;BME280;29882;46.356;17.798;2022-10-16T03:26:10;100366.75;;;11.07;100.00
44213;BME280;29882;46.356;17.798;2022-10-16T03:28:37;100372.69;;;11.11;100.00
44213;BME280;29882;46.356;17.798;2022-10-16T03:31:04;100370.59;;;11.05;100.00
44213;BME280;29882;46.356;17.798;2022-10-16T03:33:31;100368.06;;;11.03;100.00
44213;BME280;29882;46.356;17.798;2022-10-16T03:35:58;100367.00;;;10.96;100.00
44213;BME280;29882;46.356;17.798;2022-10-16T03:38:25;100371.41;;;10.97;100.00
44213;BME280;29882;46.356;17.798;2022-10-16T03:40:52;100368.69;;;10.97;100.00
44213;BME280;29882;46.356;17.798;2022-10-16T03:43:20;100371.91;;;11.01;100.00
44213;BME280;29882;46.356;17.798;2022-10-16T03:45:47;100380.84;;;11.01;100.00
44213;BME280;29882;46.356;17.798;2022-10-16T03:48:14;100375.09;;;10.96;100.00
44213;BME280;29882;46.356;17.798;2022-10-16T03:50:40;100381.09;;;10.90;100.00
44213;BME280;29882;46.356;17.798;2022-10-16T03:53:07;100377.16;;;10.85;100.00
44213;BME280;29882;46.356;17.798;2022-10-16T03:55:35;100390.09;;;10.81;100.00
44213;BME280;29882;46.356;17.798;2022-10-16T03:58:02;100386.56;;;10.80;100.00
44213;BME280;29882;46.356;17.798;2022-10-16T04:00:29;100393.97;;;10.78;100.00
44213;BME280;29882;46.356;17.798;2022-10-16T04:02:56;100395.09;;;10.76;100.00
44213;BME280;29882;46.356;17.798;2022-10-16T04:05:23;100401.66;;;10.73;100.00
44213;BME280;29882;46.356;17.798;2022-10-16T04:07:50;100402.97;;;10.69;100.00
44213;BME280;29882;46.356;17.798;2022-10-16T04:10:17;100410.75;;;10.72;100.00
44213;BME280;29882;46.356;17.798;2022-10-16T04:12:44;100414.72;;;10.68;100.00
44213;BME280;29882;46.356;17.798;2022-10-16T04:15:11;100410.13;;;10.61;100.00
44213;BME280;29882;46.356;17.798;2022-10-16T04:17:38;100410.72;;;10.55;100.00
44213;BME280;29882;46.356;17.798;2022-10-16T04:20:06;100399.94;;;10.55;100.00
44213;BME280;29882;46.356;17.798;2022-10-16T04:22:33;100405.63;;;10.51;100.00
44213;BME280;29882;46.356;17.798;2022-10-16T04:25:00;100408.16;;;10.53;100.00
44213;BME280;29882;46.356;17.798;2022-10-16T04:27:27;100401.78;;;10.54;100.00
44213;BME280;29882;46.356;17.798;2022-10-16T04:29:55;100399.84;;;10.46;100.00
44213;BME280;29882;46.356;17.798;2022-10-16T04:32:22;100401.00;;;10.44;100.00
44213;BME280;29882;46.356;17.798;2022-10-16T04:34:49;100394.19;;;10.40;100.00
44213;BME280;29882;46.356;17.798;2022-10-16T04:37:16;100399.28;;;10.43;100.00
44213;BME280;29882;46.356;17.798;2022-10-16T04:39:43;100396.78;;;10.32;100.00
44213;BME280;29882;46.356;17.798;2022-10-16T04:42:11;100394.25;;;10.30;100.00
44213;BME280;29882;46.356;17.798;2022-10-16T04:44:38;100396.50;;;10.35;100.00
44213;BME280;29882;46.356;17.798;2022-10-16T04:47:05;100394.56;;;10.27;100.00
44213;BME280;29882;46.356;17.798;2022-10-16T04:49:32;100397.09;;;10.29;100.00
44213;BME280;29882;46.356;17.798;2022-10-16T04:51:59;100393.13;;;10.23;100.00
44213;BME280;29882;46.356;17.798;2022-10-16T04:54:26;100395.81;;;10.23;100.00
44213;BME280;29882;46.356;17.798;2022-10-16T04:56:53;100391.28;;;10.23;100.00
44213;BME280;29882;46.356;17.798;2022-10-16T04:59:21;100388.00;;;10.30;100.00
44213;BME280;29882;46.356;17.798;2022-10-16T05:01:49;100390.44;;;10.23;100.00
44213;BME280;29882;46.356;17.798;2022-10-16T05:04:16;100391.28;;;10.23;100.00
44213;BME280;29882;46.356;17.798;2022-10-16T05:06:43;100388.84;;;10.30;100.00
44213;BME280;29882;46.356;17.798;2022-10-16T05:09:10;100388.03;;;10.20;100.00
44213;BME280;29882;46.356;17.798;2022-10-16T05:11:37;100402.34;;;10.20;100.00
44213;BME280;29882;46.356;17.798;2022-10-16T05:14:04;100398.69;;;10.12;100.00
44213;BME280;29882;46.356;17.798;2022-10-16T05:16:31;100410.41;;;10.20;100.00
44213;BME280;29882;46.356;17.798;2022-10-16T05:18:59;100415.13;;;10.18;100.00
44213;BME280;29882;46.356;17.798;2022-10-16T05:21:46;100412.16;;;10.12;100.00
44213;BME280;29882;46.356;17.798;2022-10-16T05:24:13;100422.94;;;10.12;100.00
44213;BME280;29882;46.356;17.798;2022-10-16T05:26:40;100429.16;;;10.12;100.00
44213;BME280;29882;46.356;17.798;2022-10-16T05:29:07;100423.47;;;10.15;100.00
44213;BME280;29882;46.356;17.798;2022-10-16T05:31:33;100437.66;;;10.17;100.00
44213;BME280;29882;46.356;17.798;2022-10-16T05:34:01;100433.41;;;10.15;100.00
44213;BME280;29882;46.356;17.798;2022-10-16T05:36:28;100436.81;;;10.17;100.00
44213;BME280;29882;46.356;17.798;2022-10-16T05:38:55;100442.19;;;10.17;100.00
44213;BME280;29882;46.356;17.798;2022-10-16T05:41:22;100447.88;;;10.14;100.00
44213;BME280;29882;46.356;17.798;2022-10-16T05:43:53;100445.16;;;10.14;100.00
44213;BME280;29882;46.356;17.798;2022-10-16T05:46:20;100451.13;;;10.17;100.00
44213;BME280;29882;46.356;17.798;2022-10-16T05:48:47;100449.97;;;10.30;100.00
44213;BME280;29882;46.356;17.798;2022-10-16T05:51:14;100452.41;;;10.23;100.00
44213;BME280;29882;46.356;17.798;2022-10-16T05:53:41;100461.06;;;10.27;100.00
44213;BME280;29882;46.356;17.798;2022-10-16T05:56:10;100464.59;;;10.27;100.00
44213;BME280;29882;46.356;17.798;2022-10-16T05:58:39;100463.75;;;10.27;100.00
44213;BME280;29882;46.356;17.798;2022-10-16T06:01:10;100469.94;;;10.37;100.00
44213;BME280;29882;46.356;17.798;2022-10-16T06:03:38;100473.16;;;10.40;100.00
44213;BME280;29882;46.356;17.798;2022-10-16T06:06:19;100475.28;;;10.46;100.00
44213;BME280;29882;46.356;17.798;2022-10-16T06:08:48;100475.69;;;10.51;100.00
44213;BME280;29882;46.356;17.798;2022-10-16T06:11:24;100477.25;;;10.54;100.00
44213;BME280;29882;46.356;17.798;2022-10-16T06:13:52;100480.47;;;10.58;100.00
44213;BME280;29882;46.356;17.798;2022-10-16T06:16:20;100486.13;;;10.64;100.00
44213;BME280;29882;46.356;17.798;2022-10-16T06:18:47;100489.34;;;10.68;100.00
44213;BME280;29882;46.356;17.798;2022-10-16T06:21:17;100493.47;;;10.72;100.00
44213;BME280;29882;46.356;17.798;2022-10-16T06:23:44;100492.00;;;10.77;100.00
44213;BME280;29882;46.356;17.798;2022-10-16T06:26:17;100505.34;;;10.79;100.00
44213;BME280;29882;46.356;17.798;2022-10-16T06:28:45;100502.72;;;10.87;100.00
44213;BME280;29882;46.356;17.798;2022-10-16T06:31:12;100511.91;;;10.94;100.00
44213;BME280;29882;46.356;17.798;2022-10-16T06:33:40;100512.69;;;11.04;100.00
44213;BME280;29882;46.356;17.798;2022-10-16T06:36:12;100522.81;;;11.20;100.00
44213;BME280;29882;46.356;17.798;2022-10-16T06:38:41;100524.38;;;11.23;100.00
44213;BME280;29882;46.356;17.798;2022-10-16T06:41:12;100523.59;;;11.30;100.00
44213;BME280;29882;46.356;17.798;2022-10-16T06:43:39;100527.47;;;11.46;100.00
44213;BME280;29882;46.356;17.798;2022-10-16T06:46:09;100527.25;;;11.57;100.00
44213;BME280;29882;46.356;17.798;2022-10-16T06:48:37;100534.81;;;11.53;100.00
44213;BME280;29882;46.356;17.798;2022-10-16T06:53:38;100530.84;;;11.65;100.00
44213;BME280;29882;46.356;17.798;2022-10-16T06:56:27;100536.72;;;11.79;100.00
44213;BME280;29882;46.356;17.798;2022-10-16T06:58:54;100538.53;;;11.88;100.00
44213;BME280;29882;46.356;17.798;2022-10-16T07:01:23;100539.97;;;12.00;100.00
44213;BME280;29882;46.356;17.798;2022-10-16T07:03:50;100546.44;;;12.07;100.00
44213;BME280;29882;46.356;17.798;2022-10-16T07:06:20;100541.78;;;12.17;100.00
44213;BME280;29882;46.356;17.798;2022-10-16T07:08:48;100545.06;;;12.29;100.00
44213;BME280;29882;46.356;17.798;2022-10-16T07:11:17;100549.56;;;12.46;100.00
44213;BME280;29882;46.356;17.798;2022-10-16T07:13:46;100556.50;;;12.49;100.00
44213;BME280;29882;46.356;17.798;2022-10-16T07:16:22;100567.22;;;12.59;100.00
44213;BME280;29882;46.356;17.798;2022-10-16T07:18:50;100558.88;;;12.78;100.00
44213;BME280;29882;46.356;17.798;2022-10-16T07:21:21;100564.63;;;12.83;100.00
44213;BME280;29882;46.356;17.798;2022-10-16T07:23:53;100571.50;;;13.03;100.00
44213;BME280;29882;46.356;17.798;2022-10-16T07:26:22;100559.69;;;13.13;100.00
44213;BME280;29882;46.356;17.798;2022-10-16T07:28:49;100567.00;;;13.20;100.00
44213;BME280;29882;46.356;17.798;2022-10-16T07:31:18;100572.63;;;13.27;100.00
44213;BME280;29882;46.356;17.798;2022-10-16T07:33:46;100574.53;;;13.43;100.00
44213;BME280;29882;46.356;17.798;2022-10-16T07:36:19;100575.56;;;13.50;100.00
44213;BME280;29882;46.356;17.798;2022-10-16T07:38:46;100582.34;;;13.62;100.00
44213;BME280;29882;46.356;17.798;2022-10-16T07:41:16;100583.22;;;13.71;100.00
44213;BME280;29882;46.356;17.798;2022-10-16T07:43:48;100590.84;;;13.83;100.00
44213;BME280;29882;46.356;17.798;2022-10-16T07:46:16;100587.28;;;13.99;100.00
44213;BME280;29882;46.356;17.798;2022-10-16T07:48:43;100596.94;;;14.18;100.00
44213;BME280;29882;46.356;17.798;2022-10-16T07:51:15;100597.63;;;14.28;100.00
44213;BME280;29882;46.356;17.798;2022-10-16T07:53:43;100593.38;;;14.34;100.00
44213;BME280;29882;46.356;17.798;2022-10-16T07:56:11;100594.75;;;14.38;100.00
44213;BME280;29882;46.356;17.798;2022-10-16T07:58:38;100603.03;;;14.44;100.00
44213;BME280;29882;46.356;17.798;2022-10-16T08:01:07;100606.94;;;14.66;100.00
44213;BME280;29882;46.356;17.798;2022-10-16T08:03:35;100604.22;;;14.74;100.00
44213;BME280;29882;46.356;17.798;2022-10-16T08:06:03;100605.88;;;14.84;100.00
44213;BME280;29882;46.356;17.798;2022-10-16T08:08:31;100611.78;;;14.95;100.00
44213;BME280;29882;46.356;17.798;2022-10-16T08:10:58;100606.31;;;15.03;100.00
44213;BME280;29882;46.356;17.798;2022-10-16T08:13:25;100615.34;;;14.96;100.00
44213;BME280;29882;46.356;17.798;2022-10-16T08:15:53;100607.66;;;15.08;100.00
44213;BME280;29882;46.356;17.798;2022-10-16T08:18:21;100620.16;;;15.25;100.00
44213;BME280;29882;46.356;17.798;2022-10-16T08:20:58;100611.66;;;15.28;100.00
44213;BME280;29882;46.356;17.798;2022-10-16T08:23:25;100608.41;;;15.32;100.00
44213;BME280;29882;46.356;17.798;2022-10-16T08:25:55;100593.56;;;15.43;100.00
44213;BME280;29882;46.356;17.798;2022-10-16T08:28:23;100609.44;;;15.63;100.00
44213;BME280;29882;46.356;17.798;2022-10-16T08:30:50;100604.91;;;15.86;100.00
44213;BME280;29882;46.356;17.798;2022-10-16T08:33:17;100620.19;;;15.87;100.00
44213;BME280;29882;46.356;17.798;2022-10-16T08:35:51;100619.16;;;15.88;100.00
44213;BME280;29882;46.356;17.798;2022-10-16T08:38:20;100624.53;;;15.96;100.00
44213;BME280;29882;46.356;17.798;2022-10-16T08:40:47;100625.78;;;16.08;100.00
44213;BME280;29882;46.356;17.798;2022-10-16T08:43:31;100620.66;;;16.13;100.00
44213;BME280;29882;46.356;17.798;2022-10-16T08:49:03;100624.81;;;16.24;100.00
44213;BME280;29882;46.356;17.798;2022-10-16T08:51:36;100623.06;;;16.31;100.00
44213;BME280;29882;46.356;17.798;2022-10-16T08:57:09;100622.53;;;16.73;100.00
44213;BME280;29882;46.356;17.798;2022-10-16T08:59:37;100622.25;;;16.83;100.00
44213;BME280;29882;46.356;17.798;2022-10-16T09:07:44;100623.94;;;17.14;100.00
44213;BME280;29882;46.356;17.798;2022-10-16T09:10:25;100620.47;;;17.35;100.00
44213;BME280;29882;46.356;17.798;2022-10-16T09:15:52;100616.63;;;17.29;100.00
44213;BME280;29882;46.356;17.798;2022-10-16T09:18:29;100618.09;;;17.31;100.00
44213;BME280;29882;46.356;17.798;2022-10-16T09:21:43;100621.38;;;17.42;100.00
44213;BME280;29882;46.356;17.798;2022-10-16T09:24:15;100625.66;;;17.66;100.00
44213;BME280;29882;46.356;17.798;2022-10-16T09:26:43;100621.69;;;17.68;100.00
44213;BME280;29882;46.356;17.798;2022-10-16T09:29:14;100629.22;;;17.81;100.00
44213;BME280;29882;46.356;17.798;2022-10-16T09:31:42;100621.81;;;17.75;100.00
44213;BME280;29882;46.356;17.798;2022-10-16T09:34:32;100623.25;;;17.92;100.00
44213;BME280;29882;46.356;17.798;2022-10-16T09:37:03;100627.34;;;18.03;100.00
44213;BME280;29882;46.356;17.798;2022-10-16T09:39:30;100638.84;;;18.20;100.00
44213;BME280;29882;46.356;17.798;2022-10-16T09:41:57;100643.06;;;18.22;100.00
44213;BME280;29882;46.356;17.798;2022-10-16T09:44:28;100645.34;;;18.19;100.00
44213;BME280;29882;46.356;17.798;2022-10-16T09:47:13;100641.03;;;18.31;100.00
44213;BME280;29882;46.356;17.798;2022-10-16T09:49:58;100637.00;;;18.48;100.00
44213;BME280;29882;46.356;17.798;2022-10-16T09:52:28;100633.50;;;18.54;100.00
44213;BME280;29882;46.356;17.798;2022-10-16T09:54:58;100638.09;;;18.75;100.00
44213;BME280;29882;46.356;17.798;2022-10-16T09:57:26;100632.56;;;18.68;100.00
44213;BME280;29882;46.356;17.798;2022-10-16T09:59:56;100634.25;;;18.97;100.00
44213;BME280;29882;46.356;17.798;2022-10-16T10:02:33;100630.13;;;19.08;100.00
44213;BME280;29882;46.356;17.798;2022-10-16T10:05:02;100633.31;;;19.18;100.00
44213;BME280;29882;46.356;17.798;2022-10-16T10:07:32;100639.63;;;19.19;100.00
44213;BME280;29882;46.356;17.798;2022-10-16T10:10:03;100631.59;;;19.52;100.00
44213;BME280;29882;46.356;17.798;2022-10-16T10:12:33;100634.06;;;19.40;100.00
44213;BME280;29882;46.356;17.798;2022-10-16T10:15:06;100638.22;;;19.29;100.00
44213;BME280;29882;46.356;17.798;2022-10-16T10:17:48;100634.50;;;19.44;100.00
44213;BME280;29882;46.356;17.798;2022-10-16T10:20:33;100638.38;;;19.56;100.00
44213;BME280;29882;46.356;17.798;2022-10-16T10:23:22;100639.00;;;19.58;100.00
44213;BME280;29882;46.356;17.798;2022-10-16T10:26:02;100642.66;;;19.78;100.00
44213;BME280;29882;46.356;17.798;2022-10-16T10:31:39;100641.56;;;19.60;100.00
44213;BME280;29882;46.356;17.798;2022-10-16T10:34:26;100641.00;;;19.84;100.00
44213;BME280;29882;46.356;17.798;2022-10-16T10:37:06;100630.06;;;19.91;100.00
44213;BME280;29882;46.356;17.798;2022-10-16T10:39:41;100634.25;;;19.80;100.00
44213;BME280;29882;46.356;17.798;2022-10-16T10:45:46;100628.69;;;20.48;100.00
44213;BME280;29882;46.356;17.798;2022-10-16T11:02:55;100593.38;;;21.24;93.99
44213;BME280;29882;46.356;17.798;2022-10-16T11:05:12;100597.81;;;21.25;92.77
44213;BME280;29882;46.356;17.798;2022-10-16T11:10:53;100600.84;;;21.62;87.82
44213;BME280;29882;46.356;17.798;2022-10-16T11:13:52;100597.97;;;21.81;86.66
44213;BME280;29882;46.356;17.798;2022-10-16T11:16:18;100597.75;;;22.21;83.91
44213;BME280;29882;46.356;17.798;2022-10-16T11:18:56;100594.66;;;22.86;80.42
44213;BME280;29882;46.356;17.798;2022-10-16T11:21:26;100599.09;;;23.05;79.17
44213;BME280;29882;46.356;17.798;2022-10-16T11:24:02;100583.63;;;23.29;75.93
44213;BME280;29882;46.356;17.798;2022-10-16T11:26:34;100592.59;;;23.55;70.12
44213;BME280;29882;46.356;17.798;2022-10-16T11:29:12;100584.66;;;24.06;69.46
44213;BME280;29882;46.356;17.798;2022-10-16T11:31:51;100583.00;;;24.59;66.36
44213;BME280;29882;46.356;17.798;2022-10-16T11:34:45;100584.13;;;26.02;60.17
44213;BME280;29882;46.356;17.798;2022-10-16T11:37:22;100589.88;;;27.40;55.88
44213;BME280;29882;46.356;17.798;2022-10-16T11:39:54;100586.38;;;27.50;55.03
44213;BME280;29882;46.356;17.798;2022-10-16T11:42:44;100583.69;;;28.31;52.20
44213;BME280;29882;46.356;17.798;2022-10-16T11:45:39;100585.72;;;28.77;49.47
44213;BME280;29882;46.356;17.798;2022-10-16T11:54:51;100568.53;;;30.77;43.22
44213;BME280;29882;46.356;17.798;2022-10-16T11:57:24;100577.56;;;31.33;42.02
44213;BME280;29882;46.356;17.798;2022-10-16T12:00:37;100570.59;;;31.90;40.10
44213;BME280;29882;46.356;17.798;2022-10-16T12:03:11;100568.34;;;31.38;39.44
44213;BME280;29882;46.356;17.798;2022-10-16T12:08:15;100574.41;;;32.73;37.07
44213;BME280;29882;46.356;17.798;2022-10-16T12:10:45;100578.00;;;33.26;36.33
44213;BME280;29882;46.356;17.798;2022-10-16T12:13:32;100575.84;;;33.42;35.76
44213;BME280;29882;46.356;17.798;2022-10-16T12:16:22;100575.63;;;33.15;35.61
44213;BME280;29882;46.356;17.798;2022-10-16T12:19:07;100577.50;;;33.86;34.70
44213;BME280;29882;46.356;17.798;2022-10-16T12:21:36;100578.66;;;32.94;35.22
44213;BME280;29882;46.356;17.798;2022-10-16T12:24:04;100579.88;;;33.36;34.97
44213;BME280;29882;46.356;17.798;2022-10-16T12:26:33;100578.56;;;33.71;34.26
44213;BME280;29882;46.356;17.798;2022-10-16T12:31:45;100579.44;;;33.85;33.88
44213;BME280;29882;46.356;17.798;2022-10-16T12:37:14;100585.72;;;33.77;33.50
44213;BME280;29882;46.356;17.798;2022-10-16T12:39:42;100584.88;;;33.77;33.54
44213;BME280;29882;46.356;17.798;2022-10-16T12:44:55;100577.69;;;34.79;32.34
44213;BME280;29882;46.356;17.798;2022-10-16T12:47:49;100586.66;;;35.08;31.61
44213;BME280;29882;46.356;17.798;2022-10-16T12:50:32;100583.69;;;34.21;32.90
44213;BME280;29882;46.356;17.798;2022-10-16T12:53:00;100592.47;;;35.39;31.29
44213;BME280;29882;46.356;17.798;2022-10-16T12:55:35;100594.31;;;35.30;31.76
44213;BME280;29882;46.356;17.798;2022-10-16T12:58:20;100594.63;;;35.70;31.33
44213;BME280;29882;46.356;17.798;2022-10-16T13:00:56;100593.06;;;35.22;31.41
44213;BME280;29882;46.356;17.798;2022-10-16T13:09:13;100584.50;;;34.86;31.43
44213;BME280;29882;46.356;17.798;2022-10-16T13:28:02;100597.38;;;33.42;33.27
44213;BME280;29882;46.356;17.798;2022-10-16T13:30:36;100596.84;;;32.92;34.05
44213;BME280;29882;46.356;17.798;2022-10-16T13:35:53;100598.50;;;33.17;33.92
44213;BME280;29882;46.356;17.798;2022-10-16T13:38:26;100593.53;;;33.38;33.29
44213;BME280;29882;46.356;17.798;2022-10-16T13:43:54;100600.56;;;33.30;33.23
44213;BME280;29882;46.356;17.798;2022-10-16T13:46:24;100596.75;;;32.97;33.77
44213;BME280;29882;46.356;17.798;2022-10-16T13:49:02;100603.19;;;33.21;33.81
44213;BME280;29882;46.356;17.798;2022-10-16T13:51:30;100600.13;;;32.36;34.44
44213;BME280;29882;46.356;17.798;2022-10-16T13:53:58;100600.28;;;32.10;34.83
44213;BME280;29882;46.356;17.798;2022-10-16T13:56:31;100605.50;;;32.17;34.82
44213;BME280;29882;46.356;17.798;2022-10-16T13:59:07;100609.59;;;31.26;36.07
44213;BME280;29882;46.356;17.798;2022-10-16T14:01:49;100612.66;;;31.94;35.62
44213;BME280;29882;46.356;17.798;2022-10-16T14:04:18;100601.72;;;32.42;34.38
44213;BME280;29882;46.356;17.798;2022-10-16T14:06:49;100603.47;;;31.94;35.72
44213;BME280;29882;46.356;17.798;2022-10-16T14:09:27;100601.88;;;30.87;36.49
44213;BME280;29882;46.356;17.798;2022-10-16T14:12:08;100599.75;;;29.55;38.75
44213;BME280;29882;46.356;17.798;2022-10-16T14:14:41;100595.84;;;28.99;40.16
44213;BME280;29882;46.356;17.798;2022-10-16T14:17:23;100597.34;;;29.17;39.74
44213;BME280;29882;46.356;17.798;2022-10-16T14:19:53;100600.41;;;29.15;39.95
44213;BME280;29882;46.356;17.798;2022-10-16T14:22:39;100604.47;;;29.02;40.32
44213;BME280;29882;46.356;17.798;2022-10-16T14:28:15;100606.69;;;29.00;39.84
44213;BME280;29882;46.356;17.798;2022-10-16T14:30:57;100610.22;;;28.26;41.32
44213;BME280;29882;46.356;17.798;2022-10-16T14:38:36;100625.00;;;27.39;43.59
44213;BME280;29882;46.356;17.798;2022-10-16T14:41:04;100618.91;;;27.81;42.64